createdAt,value
2018-06-01T00:00:40.323Z,54.39
2018-06-01T00:03:06.686Z,54.71
2018-06-01T00:05:33.012Z,54.70
2018-06-01T00:07:59.398Z,54.89
2018-06-01T00:10:25.754Z,54.76
2018-06-01T00:12:52.190Z,54.29
2018-06-01T00:15:18.622Z,54.53
2018-06-01T00:17:44.970Z,54.62
2018-06-01T00:20:11.389Z,54.45
2018-06-01T00:22:37.718Z,54.30
2018-06-01T00:25:04.073Z,54.07
2018-06-01T00:27:30.461Z,54.25
2018-06-01T00:29:56.812Z,54.21
2018-06-01T00:32:23.152Z,54.32
2018-06-01T00:34:49.511Z,54.44
2018-06-01T00:37:15.820Z,54.14
2018-06-01T00:39:42.139Z,55.00
2018-06-01T00:42:08.506Z,55.55
2018-06-01T00:44:35.712Z,55.49
2018-06-01T00:47:02.088Z,56.11
2018-06-01T00:49:28.520Z,56.29
2018-06-01T00:51:54.921Z,55.70
2018-06-01T00:54:21.279Z,55.83
2018-06-01T00:56:47.619Z,55.61
2018-06-01T00:59:13.993Z,55.79
2018-06-01T01:01:40.324Z,56.02
2018-06-01T01:04:06.705Z,55.59
2018-06-01T01:06:33.053Z,55.86
2018-06-01T01:08:59.430Z,56.48
2018-06-01T01:11:25.762Z,56.25
2018-06-01T01:13:52.116Z,55.78
2018-06-01T01:16:18.498Z,56.31
2018-06-01T01:18:44.900Z,55.98
2018-06-01T01:21:11.212Z,55.92
2018-06-01T01:23:37.629Z,55.65
2018-06-01T01:26:03.982Z,55.59
2018-06-01T01:28:30.373Z,56.61
2018-06-01T01:30:56.807Z,56.63
2018-06-01T01:33:23.173Z,56.11
2018-06-01T01:35:49.534Z,56.19
2018-06-01T01:38:16.826Z,55.98
2018-06-01T01:40:43.293Z,56.48
2018-06-01T01:43:09.564Z,56.09
2018-06-01T01:45:35.930Z,55.04
2018-06-01T01:48:02.374Z,54.69
2018-06-01T01:50:28.715Z,54.82
2018-06-01T01:52:55.074Z,54.97
2018-06-01T01:55:21.429Z,55.43
2018-06-01T01:57:47.745Z,54.96
2018-06-01T02:00:14.241Z,54.86
2018-06-01T02:02:40.629Z,54.91
2018-06-01T02:05:06.984Z,54.75
2018-06-01T02:07:33.392Z,54.67
2018-06-01T02:09:59.730Z,54.61
2018-06-01T02:12:26.100Z,55.05
2018-06-01T02:14:52.534Z,54.84
2018-06-01T02:17:18.906Z,54.78
2018-06-01T02:19:45.271Z,55.01
2018-06-01T02:22:11.695Z,55.09
2018-06-01T02:24:38.052Z,55.13
2018-06-01T02:27:04.413Z,54.91
2018-06-01T02:29:30.808Z,54.50
2018-06-01T02:31:57.163Z,54.46
2018-06-01T02:34:23.506Z,55.01
2018-06-01T02:36:49.923Z,54.56
2018-06-01T02:39:16.253Z,54.68
2018-06-01T02:41:42.687Z,54.47
2018-06-01T02:44:09.224Z,54.48
2018-06-01T02:46:35.607Z,54.16
2018-06-01T02:49:02.024Z,54.66
2018-06-01T02:51:28.404Z,55.16
2018-06-01T02:53:54.783Z,55.41
2018-06-01T02:56:21.141Z,56.28
2018-06-01T02:58:47.678Z,56.15
2018-06-01T03:01:14.062Z,56.25
2018-06-01T03:03:40.398Z,56.80
2018-06-01T03:06:06.771Z,56.49
2018-06-01T03:08:33.100Z,56.33
2018-06-01T03:11:00.065Z,56.09
2018-06-01T03:13:26.406Z,56.26
2018-06-01T03:15:53.698Z,57.45
2018-06-01T03:18:20.049Z,57.74
2018-06-01T03:20:46.365Z,57.32
2018-06-01T03:23:12.786Z,56.89
2018-06-01T03:25:39.129Z,56.18
2018-06-01T03:28:05.462Z,56.33
2018-06-01T03:30:31.844Z,56.24
2018-06-01T03:32:58.234Z,56.40
2018-06-01T03:35:24.568Z,56.26
2018-06-01T03:37:50.965Z,57.06
2018-06-01T03:40:17.399Z,56.86
2018-06-01T03:42:43.746Z,56.71
2018-06-01T03:45:10.261Z,56.90
2018-06-01T03:47:36.632Z,57.10
2018-06-01T03:50:03.025Z,57.39
2018-06-01T03:52:29.439Z,57.17
2018-06-01T03:54:55.778Z,56.97
2018-06-01T03:57:22.150Z,57.11
2018-06-01T03:59:48.561Z,57.17
2018-06-01T04:02:14.892Z,56.85
2018-06-01T04:04:42.106Z,58.31
2018-06-01T04:07:08.483Z,57.47
2018-06-01T04:09:34.827Z,57.98
2018-06-01T04:12:01.240Z,57.69
2018-06-01T04:14:27.609Z,56.59
2018-06-01T04:16:54.215Z,55.91
2018-06-01T04:19:20.582Z,54.34
2018-06-01T04:21:46.975Z,53.86
2018-06-01T04:24:14.293Z,52.32
2018-06-01T04:26:40.644Z,50.99
2018-06-01T04:29:07.017Z,50.26
2018-06-01T04:31:33.631Z,50.68
2018-06-01T04:33:59.985Z,49.39
2018-06-01T04:36:26.417Z,49.17
2018-06-01T04:38:52.929Z,48.31
2018-06-01T04:41:19.487Z,48.02
2018-06-01T04:43:45.864Z,47.58
2018-06-01T04:46:12.216Z,47.13
2018-06-01T04:48:38.581Z,46.76
2018-06-01T04:51:04.965Z,47.07
2018-06-01T04:53:31.296Z,47.30
2018-06-01T04:55:57.629Z,46.92
2018-06-01T04:58:24.030Z,46.94
2018-06-01T05:00:50.408Z,46.59
2018-06-01T05:03:16.757Z,46.47
2018-06-01T05:05:43.246Z,46.40
2018-06-01T05:08:09.645Z,46.52
2018-06-01T05:10:36.024Z,46.32
2018-06-01T05:13:02.415Z,46.87
2018-06-01T05:15:28.821Z,46.67
2018-06-01T05:17:55.169Z,46.77
2018-06-01T05:20:21.556Z,46.77
2018-06-01T05:22:47.937Z,46.88
2018-06-01T05:25:14.376Z,46.37
2018-06-01T05:27:40.746Z,46.51
2018-06-01T05:30:07.214Z,46.10
2018-06-01T05:32:33.594Z,46.07
2018-06-01T05:35:00.076Z,45.65
2018-06-01T05:37:27.053Z,45.94
2018-06-01T05:39:53.567Z,45.68
2018-06-01T05:42:20.042Z,45.57
2018-06-01T05:44:46.410Z,45.53
2018-06-01T05:47:12.794Z,45.45
2018-06-01T05:49:39.182Z,45.62
2018-06-01T05:52:05.539Z,45.39
2018-06-01T05:54:31.896Z,45.22
2018-06-01T05:56:58.241Z,44.98
2018-06-01T05:59:24.632Z,45.40
2018-06-01T06:01:51.042Z,45.20
2018-06-01T06:04:17.387Z,44.93
2018-06-01T06:06:43.718Z,44.96
2018-06-01T06:09:10.152Z,44.96
2018-06-01T06:11:36.690Z,44.78
2018-06-01T06:14:03.019Z,44.89
2018-06-01T06:16:29.408Z,44.54
2018-06-01T06:18:55.772Z,44.55
2018-06-01T06:21:22.218Z,44.05
2018-06-01T06:23:48.585Z,43.86
2018-06-01T06:26:15.082Z,43.46
2018-06-01T06:28:41.661Z,43.32
2018-06-01T06:31:08.049Z,44.03
2018-06-01T06:33:34.425Z,44.00
2018-06-01T06:36:00.789Z,43.38
2018-06-01T06:38:27.125Z,42.99
2018-06-01T06:40:53.520Z,42.22
2018-06-01T06:43:19.915Z,42.57
2018-06-01T06:45:46.486Z,42.27
2018-06-01T06:48:12.829Z,41.84
2018-06-01T06:50:39.216Z,41.32
2018-06-01T06:53:05.584Z,41.96
2018-06-01T06:55:31.938Z,41.97
2018-06-01T06:57:58.414Z,41.95
2018-06-01T07:00:24.744Z,42.10
2018-06-01T07:02:51.121Z,41.84
2018-06-01T07:05:17.480Z,41.86
2018-06-01T07:07:43.878Z,42.32
2018-06-01T07:10:10.233Z,42.09
2018-06-01T07:12:36.616Z,41.99
2018-06-01T07:15:03.015Z,40.84
2018-06-01T07:17:29.402Z,40.78
2018-06-01T07:19:55.778Z,41.35
2018-06-01T07:22:22.146Z,41.24
2018-06-01T07:24:49.047Z,41.50
2018-06-01T07:27:15.398Z,41.69
2018-06-01T07:29:41.741Z,41.79
2018-06-01T07:32:08.091Z,41.71
2018-06-01T07:34:34.457Z,41.84
2018-06-01T07:37:00.843Z,40.78
2018-06-01T07:39:27.376Z,40.86
2018-06-01T07:41:53.908Z,40.85
2018-06-01T07:44:20.346Z,40.82
2018-06-01T07:46:46.724Z,41.17
2018-06-01T07:49:13.341Z,39.83
2018-06-01T07:51:39.707Z,39.14
2018-06-01T07:54:06.070Z,39.64
2018-06-01T07:56:32.407Z,39.11
2018-06-01T07:58:58.772Z,40.03
2018-06-01T08:01:25.148Z,40.19
2018-06-01T08:03:51.665Z,39.62
2018-06-01T08:06:18.060Z,39.00
2018-06-01T08:08:44.626Z,39.24
2018-06-01T08:11:10.983Z,38.94
2018-06-01T08:13:37.334Z,39.99
2018-06-01T08:16:03.771Z,39.45
2018-06-01T08:18:30.280Z,39.29
2018-06-01T08:20:56.680Z,39.05
2018-06-01T08:23:23.197Z,39.16
2018-06-01T08:25:49.541Z,39.74
2018-06-01T08:28:15.893Z,40.23
2018-06-01T08:30:42.271Z,40.38
2018-06-01T08:33:08.660Z,39.43
2018-06-01T08:35:35.192Z,38.81
2018-06-01T08:38:01.604Z,38.45
2018-06-01T08:40:27.977Z,39.31
2018-06-01T08:42:54.320Z,39.75
2018-06-01T08:45:20.666Z,38.64
2018-06-01T08:47:47.039Z,38.86
2018-06-01T08:50:13.547Z,39.41
2018-06-01T08:52:39.889Z,39.08
2018-06-01T08:55:06.267Z,39.08
2018-06-01T08:57:32.662Z,39.18
2018-06-01T08:59:59.001Z,38.45
2018-06-01T09:02:25.405Z,38.50
2018-06-01T09:04:51.800Z,38.73
2018-06-01T09:07:18.233Z,36.53
2018-06-01T09:09:44.624Z,35.82
2018-06-01T09:12:10.961Z,35.18
2018-06-01T09:14:37.472Z,37.01
2018-06-01T09:17:03.943Z,36.23
2018-06-01T09:19:30.290Z,36.77
2018-06-01T09:21:56.669Z,36.55
2018-06-01T09:24:23.106Z,37.12
2018-06-01T09:26:49.568Z,36.43
2018-06-01T09:29:15.936Z,36.31
2018-06-01T09:31:42.962Z,36.42
2018-06-01T09:34:09.351Z,36.21
2018-06-01T09:36:35.725Z,35.83
2018-06-01T09:39:02.180Z,35.48
2018-06-01T09:41:28.742Z,35.77
2018-06-01T09:43:55.111Z,33.05
2018-06-01T09:46:21.464Z,34.70
2018-06-01T09:48:48.744Z,34.98
2018-06-01T09:51:15.227Z,34.45
2018-06-01T09:53:41.573Z,35.19
2018-06-01T09:56:08.058Z,30.94
2018-06-01T09:58:34.425Z,37.16
2018-06-01T10:01:01.029Z,35.69
2018-06-01T10:03:27.408Z,29.81
2018-06-01T10:05:53.842Z,37.58
2018-06-01T10:08:20.411Z,32.67
2018-06-01T10:10:46.794Z,34.56
2018-06-01T10:13:13.266Z,32.75
2018-06-01T10:15:39.770Z,32.65
2018-06-01T10:18:06.145Z,33.27
2018-06-01T10:20:34.588Z,31.90
2018-06-01T10:23:01.032Z,36.29
2018-06-01T10:25:27.386Z,32.25
2018-06-01T10:27:53.808Z,31.84
2018-06-01T10:30:20.183Z,31.18
2018-06-01T10:32:46.522Z,31.24
2018-06-01T10:35:13.544Z,30.02
2018-06-01T10:37:39.934Z,30.72
2018-06-01T10:40:06.282Z,30.68
2018-06-01T10:42:32.625Z,31.47
2018-06-01T10:44:58.988Z,31.76
2018-06-01T10:47:25.374Z,30.43
2018-06-01T10:49:51.727Z,31.90
2018-06-01T10:52:18.076Z,30.34
2018-06-01T10:54:44.428Z,35.34
2018-06-01T10:57:10.792Z,33.52
2018-06-01T10:59:37.761Z,36.12
2018-06-01T11:02:04.178Z,31.21
2018-06-01T11:04:30.568Z,30.23
2018-06-01T11:06:56.943Z,32.92
2018-06-01T11:09:23.290Z,31.17
2018-06-01T11:11:49.633Z,30.90
2018-06-01T11:14:16.022Z,29.16
2018-06-01T11:16:42.382Z,35.16
2018-06-01T11:19:08.711Z,29.15
2018-06-01T11:21:35.383Z,36.13
2018-06-01T11:24:01.714Z,35.38
2018-06-01T11:26:28.097Z,34.96
2018-06-01T11:28:54.454Z,31.05
2018-06-01T11:31:20.828Z,36.33
2018-06-01T11:34:12.352Z,29.48
2018-06-01T11:36:41.387Z,36.55
2018-06-01T11:39:08.005Z,30.40
2018-06-01T11:41:34.414Z,30.14
2018-06-01T11:44:00.764Z,34.53
2018-06-01T11:46:27.126Z,32.19
2018-06-01T11:48:53.489Z,33.43
2018-06-01T11:51:19.945Z,37.16
2018-06-01T11:53:46.264Z,35.42
2018-06-01T11:56:12.633Z,30.50
2018-06-01T11:58:39.030Z,34.00
2018-06-01T12:01:05.410Z,33.25
2018-06-01T12:03:31.776Z,30.09
2018-06-01T12:05:58.178Z,35.25
2018-06-01T12:08:24.534Z,36.08
2018-06-01T12:10:51.088Z,31.40
2018-06-01T12:13:17.439Z,36.45
2018-06-01T12:15:43.781Z,31.73
2018-06-01T12:18:10.144Z,28.91
2018-06-01T12:20:36.531Z,30.45
2018-06-01T12:23:03.083Z,33.52
2018-06-01T12:25:29.451Z,36.30
2018-06-01T12:27:55.859Z,35.10
2018-06-01T12:30:22.332Z,36.76
2018-06-01T12:32:48.684Z,34.64
2018-06-01T12:35:15.018Z,30.44
2018-06-01T12:37:42.387Z,29.94
2018-06-01T12:40:08.734Z,30.26
2018-06-01T12:42:35.083Z,31.54
2018-06-01T12:45:01.474Z,35.90
2018-06-01T12:47:27.810Z,29.56
2018-06-01T12:49:54.159Z,35.48
2018-06-01T12:52:20.522Z,28.75
2018-06-01T12:54:46.874Z,28.37
2018-06-01T12:57:13.229Z,35.70
2018-06-01T12:59:39.690Z,30.73
2018-06-01T13:02:06.075Z,32.46
2018-06-01T13:04:32.467Z,33.39
2018-06-01T13:06:58.960Z,30.15
2018-06-01T13:09:25.447Z,28.95
2018-06-01T13:11:51.851Z,35.79
2018-06-01T13:14:18.209Z,34.48
2018-06-01T13:16:44.551Z,34.75
2018-06-01T13:19:11.060Z,32.49
2018-06-01T13:21:37.461Z,36.10
2018-06-01T13:24:04.311Z,35.14
2018-06-01T13:26:30.640Z,35.56
2018-06-01T13:28:57.003Z,35.34
2018-06-01T13:31:23.402Z,32.92
2018-06-01T13:33:49.931Z,35.93
2018-06-01T13:36:16.453Z,29.36
2018-06-01T13:38:42.881Z,32.42
2018-06-01T13:41:09.265Z,35.22
2018-06-01T13:43:35.829Z,30.93
2018-06-01T13:46:02.317Z,30.91
2018-06-01T13:48:28.898Z,32.48
2018-06-01T13:50:55.228Z,34.38
2018-06-01T13:53:21.568Z,31.40
2018-06-01T13:55:48.109Z,31.38
2018-06-01T13:58:14.465Z,33.45
2018-06-01T14:00:40.814Z,33.49
2018-06-01T14:03:07.166Z,27.52
2018-06-01T14:05:33.574Z,33.06
2018-06-01T14:08:00.034Z,30.54
2018-06-01T14:10:26.416Z,30.95
2018-06-01T14:12:52.905Z,29.66
2018-06-01T14:15:19.334Z,29.78
2018-06-01T14:17:45.918Z,35.79
2018-06-01T14:20:12.309Z,31.50
2018-06-01T14:22:38.668Z,35.53
2018-06-01T14:25:05.129Z,30.99
2018-06-01T14:27:31.473Z,32.04
2018-06-01T14:29:57.826Z,33.25
2018-06-01T14:32:24.433Z,30.60
2018-06-01T14:34:51.109Z,32.58
2018-06-01T14:37:17.509Z,33.17
2018-06-01T14:39:43.854Z,30.21
2018-06-01T14:42:10.211Z,29.61
2018-06-01T14:44:36.806Z,30.62
2018-06-01T14:47:03.219Z,34.85
2018-06-01T14:49:29.637Z,31.69
2018-06-01T14:51:55.997Z,31.39
2018-06-01T14:54:22.395Z,33.40
2018-06-01T14:56:48.915Z,35.05
2018-06-01T14:59:15.273Z,35.06
2018-06-01T15:01:41.656Z,31.69
2018-06-01T15:04:08.074Z,32.38
2018-06-01T15:06:34.467Z,32.80
2018-06-01T15:09:00.871Z,32.76
2018-06-01T15:11:27.230Z,34.25
2018-06-01T15:13:53.673Z,36.85
2018-06-01T15:16:20.028Z,35.84
2018-06-01T15:18:46.497Z,35.08
2018-06-01T15:21:12.836Z,31.24
2018-06-01T15:23:39.185Z,35.10
2018-06-01T15:26:05.513Z,33.57
2018-06-01T15:28:31.863Z,31.97
2018-06-01T15:30:58.513Z,31.66
2018-06-01T15:33:25.018Z,32.34
2018-06-01T15:35:51.349Z,32.95
2018-06-01T15:38:17.689Z,36.69
2018-06-01T15:40:44.052Z,34.35
2018-06-01T15:43:10.450Z,35.26
2018-06-01T15:45:36.833Z,33.45
2018-06-01T15:48:03.254Z,33.09
2018-06-01T15:50:29.625Z,30.91
2018-06-01T15:52:55.945Z,34.50
2018-06-01T15:55:22.287Z,30.24
2018-06-01T15:57:48.648Z,33.98
2018-06-01T16:00:15.013Z,34.60
2018-06-01T16:02:41.369Z,35.19
2018-06-01T16:05:07.747Z,36.17
2018-06-01T16:07:34.110Z,31.04
2018-06-01T16:10:00.444Z,32.52
2018-06-01T16:12:26.811Z,31.43
2018-06-01T16:14:53.201Z,32.70
2018-06-01T16:17:19.600Z,33.16
2018-06-01T16:19:46.112Z,37.06
2018-06-01T16:22:12.451Z,32.62
2018-06-01T16:24:38.806Z,32.23
2018-06-01T16:27:05.209Z,32.45
2018-06-01T16:29:31.578Z,37.37
2018-06-01T16:31:57.946Z,32.41
2018-06-01T16:34:25.129Z,32.68
2018-06-01T16:36:51.486Z,33.40
2018-06-01T16:39:17.861Z,36.78
2018-06-01T16:41:44.236Z,33.56
2018-06-01T16:44:10.583Z,33.22
2018-06-01T16:46:36.939Z,33.55
2018-06-01T16:49:03.385Z,34.13
2018-06-01T16:51:29.766Z,34.27
2018-06-01T16:53:56.110Z,34.47
2018-06-01T16:56:22.459Z,34.52
2018-06-01T16:58:48.782Z,34.60
2018-06-01T17:01:15.109Z,34.72
2018-06-01T17:03:41.434Z,34.74
2018-06-01T17:06:07.850Z,34.70
2018-06-01T17:08:34.169Z,34.92
2018-06-01T17:11:00.500Z,34.94
2018-06-01T17:13:26.831Z,34.41
2018-06-01T17:15:53.163Z,34.58
2018-06-01T17:18:19.547Z,35.90
2018-06-01T17:20:45.887Z,36.14
2018-06-01T17:23:12.232Z,36.59
2018-06-01T17:25:38.583Z,37.55
2018-06-01T17:28:04.966Z,34.75
2018-06-01T17:30:31.325Z,35.03
2018-06-01T17:32:57.672Z,35.45
2018-06-01T17:35:24.009Z,36.19
2018-06-01T17:37:50.396Z,39.35
2018-06-01T17:40:16.770Z,35.85
2018-06-01T17:42:43.135Z,36.64
2018-06-01T17:45:10.294Z,36.03
2018-06-01T17:47:36.658Z,35.79
2018-06-01T17:50:03.118Z,35.90
2018-06-01T17:52:29.577Z,35.68
2018-06-01T17:54:55.982Z,35.70
2018-06-01T17:57:22.409Z,36.03
2018-06-01T17:59:48.815Z,36.58
2018-06-01T18:02:15.193Z,37.94
2018-06-01T18:04:41.597Z,38.50
2018-06-01T18:07:08.076Z,36.36
2018-06-01T18:09:34.416Z,36.31
2018-06-01T18:12:00.794Z,36.18
2018-06-01T18:14:27.284Z,36.46
2018-06-01T18:16:53.642Z,36.96
2018-06-01T18:19:19.987Z,37.36
2018-06-01T18:21:46.354Z,37.42
2018-06-01T18:24:12.702Z,37.63
2018-06-01T18:26:39.113Z,38.27
2018-06-01T18:29:05.496Z,38.58
2018-06-01T18:31:31.913Z,38.75
2018-06-01T18:33:58.257Z,38.86
2018-06-01T18:36:24.637Z,38.62
2018-06-01T18:38:51.021Z,38.79
2018-06-01T18:41:17.407Z,38.98
2018-06-01T18:43:43.786Z,39.53
2018-06-01T18:46:10.123Z,41.58
2018-06-01T18:48:36.466Z,39.51
2018-06-01T18:51:02.803Z,39.03
2018-06-01T18:53:29.161Z,39.21
2018-06-01T18:55:55.502Z,38.84
2018-06-01T18:58:21.965Z,41.40
2018-06-01T19:00:48.319Z,39.55
2018-06-01T19:03:14.833Z,39.97
2018-06-01T19:05:41.692Z,40.20
2018-06-01T19:08:08.214Z,41.24
2018-06-01T19:10:34.560Z,41.19
2018-06-01T19:13:00.940Z,41.55
2018-06-01T19:15:27.373Z,43.50
2018-06-01T19:17:54.546Z,43.06
2018-06-01T19:20:20.979Z,44.71
2018-06-01T19:22:47.334Z,45.06
2018-06-01T19:25:13.680Z,45.51
2018-06-01T19:27:40.042Z,47.03
2018-06-01T19:30:06.441Z,46.95
2018-06-01T19:32:32.768Z,47.46
2018-06-01T19:34:59.713Z,47.20
2018-06-01T19:37:26.091Z,46.87
2018-06-01T19:39:52.446Z,46.92
2018-06-01T19:42:18.783Z,46.74
2018-06-01T19:44:45.211Z,48.16
2018-06-01T19:47:11.574Z,49.61
2018-06-01T19:49:37.915Z,49.73
2018-06-01T19:52:04.265Z,49.28
2018-06-01T19:54:30.638Z,49.80
2018-06-01T19:56:56.967Z,51.06
2018-06-01T19:59:23.311Z,50.64
2018-06-01T20:01:49.785Z,49.84
2018-06-01T20:04:16.526Z,50.50
2018-06-01T20:06:43.093Z,49.75
2018-06-01T20:09:09.923Z,49.63
2018-06-01T20:11:36.911Z,50.74
2018-06-01T20:14:03.525Z,51.48
2018-06-01T20:16:29.887Z,52.13
2018-06-01T20:18:56.260Z,51.74
2018-06-01T20:21:22.605Z,51.67
2018-06-01T20:23:48.947Z,51.35
2018-06-01T20:26:15.282Z,51.99
2018-06-01T20:28:41.657Z,52.06
2018-06-01T20:31:08.127Z,51.64
2018-06-01T20:33:34.470Z,50.84
2018-06-01T20:36:00.804Z,50.14
2018-06-01T20:38:27.160Z,50.45
2018-06-01T20:40:53.525Z,50.93
2018-06-01T20:43:19.980Z,49.55
2018-06-01T20:45:46.356Z,50.16
2018-06-01T20:48:13.134Z,51.57
2018-06-01T20:50:39.735Z,51.06
2018-06-01T20:53:06.260Z,50.66
2018-06-01T20:55:37.532Z,51.31
2018-06-01T20:58:04.165Z,49.96
2018-06-01T21:00:30.577Z,48.87
2018-06-01T21:02:56.965Z,48.71
2018-06-01T21:05:23.374Z,48.35
2018-06-01T21:07:49.766Z,49.98
2018-06-01T21:10:16.122Z,49.94
2018-06-01T21:12:42.465Z,50.21
2018-06-01T21:15:08.813Z,50.26
2018-06-01T21:17:35.178Z,49.96
2018-06-01T21:20:01.609Z,50.32
2018-06-01T21:22:27.937Z,50.43
2018-06-01T21:24:54.322Z,49.72
2018-06-01T21:27:20.729Z,49.54
2018-06-01T21:29:47.164Z,50.10
2018-06-01T21:32:13.522Z,50.18
2018-06-01T21:34:39.857Z,49.91
2018-06-01T21:37:06.206Z,50.52
2018-06-01T21:39:32.670Z,49.73
2018-06-01T21:41:59.610Z,50.62
2018-06-01T21:44:25.941Z,50.70
2018-06-01T21:46:52.284Z,50.96
2018-06-01T21:49:18.605Z,50.59
2018-06-01T21:51:44.926Z,51.22
2018-06-01T21:54:11.265Z,53.23
2018-06-01T21:56:37.732Z,52.25
2018-06-01T21:59:04.136Z,51.31
2018-06-01T22:01:30.491Z,51.88
2018-06-01T22:03:56.844Z,52.16
2018-06-01T22:06:23.234Z,52.08
2018-06-01T22:08:49.588Z,51.54
2018-06-01T22:11:15.898Z,51.33
2018-06-01T22:13:42.230Z,51.88
2018-06-01T22:16:08.689Z,51.95
2018-06-01T22:18:35.044Z,53.38
2018-06-01T22:21:01.455Z,53.24
2018-06-01T22:23:27.805Z,55.23
2018-06-01T22:25:54.165Z,56.27
2018-06-01T22:28:20.526Z,55.08
2018-06-01T22:30:46.875Z,55.40
2018-06-01T22:33:13.218Z,55.05
2018-06-01T22:35:39.555Z,55.13
2018-06-01T22:38:05.913Z,54.19
2018-06-01T22:40:32.253Z,54.49
2018-06-01T22:42:58.592Z,54.71
2018-06-01T22:45:24.931Z,54.41
2018-06-01T22:47:51.294Z,54.90
2018-06-01T22:50:17.627Z,55.30
2018-06-01T22:52:44.026Z,54.70
2018-06-01T22:55:10.409Z,56.17
2018-06-01T22:57:36.822Z,56.44
2018-06-01T23:00:03.228Z,58.61
2018-06-01T23:02:29.503Z,58.88
2018-06-01T23:04:55.909Z,58.85
2018-06-01T23:07:22.249Z,59.17
2018-06-01T23:09:48.591Z,58.22
2018-06-01T23:12:14.948Z,58.19
2018-06-01T23:14:42.105Z,58.69
2018-06-01T23:17:08.474Z,59.53
2018-06-01T23:19:34.828Z,58.60
2018-06-01T23:22:01.153Z,58.70
2018-06-01T23:24:27.592Z,60.78
2018-06-01T23:26:53.954Z,60.50
2018-06-01T23:29:20.302Z,59.91
2018-06-01T23:31:46.658Z,58.58
2018-06-01T23:34:13.046Z,59.68
2018-06-01T23:36:39.410Z,59.79
2018-06-01T23:39:05.810Z,59.14
2018-06-01T23:41:32.218Z,59.70
2018-06-01T23:43:58.582Z,60.10
2018-06-01T23:46:24.982Z,60.57
2018-06-01T23:48:51.415Z,61.35
2018-06-01T23:51:17.782Z,62.41
2018-06-01T23:53:44.164Z,62.00
2018-06-01T23:56:10.507Z,62.85
2018-06-01T23:58:36.841Z,64.17
